sensor_id;sensor_type;location;lat;lon;timestamp;P1;durP1;ratioP1;P2;durP2;ratioP2
55728;SDS011;41633;39.720;2.910;2022-12-15T00:02:33;27.60;;;4.78;;
55728;SDS011;41633;39.720;2.910;2022-12-15T00:05:18;24.58;;;4.85;;
55728;SDS011;41633;39.720;2.910;2022-12-15T00:08:07;29.95;;;4.68;;
55728;SDS011;41633;39.720;2.910;2022-12-15T00:10:52;27.23;;;4.60;;
55728;SDS011;41633;39.720;2.910;2022-12-15T00:13:37;23.17;;;4.55;;
55728;SDS011;41633;39.720;2.910;2022-12-15T00:16:22;23.13;;;4.30;;
55728;SDS011;41633;39.720;2.910;2022-12-15T00:19:07;21.52;;;3.85;;
55728;SDS011;41633;39.720;2.910;2022-12-15T00:21:52;25.85;;;4.70;;
55728;SDS011;41633;39.720;2.910;2022-12-15T00:24:37;33.55;;;6.10;;
55728;SDS011;41633;39.720;2.910;2022-12-15T00:27:22;24.15;;;4.60;;
55728;SDS011;41633;39.720;2.910;2022-12-15T00:30:07;25.60;;;5.07;;
55728;SDS011;41633;39.720;2.910;2022-12-15T00:32:52;23.98;;;5.93;;
55728;SDS011;41633;39.720;2.910;2022-12-15T00:35:36;24.15;;;4.55;;
55728;SDS011;41633;39.720;2.910;2022-12-15T00:38:21;25.38;;;5.13;;
55728;SDS011;41633;39.720;2.910;2022-12-15T00:41:06;27.60;;;5.60;;
55728;SDS011;41633;39.720;2.910;2022-12-15T00:43:33;28.35;;;4.85;;
55728;SDS011;41633;39.720;2.910;2022-12-15T00:45:59;22.88;;;5.13;;
55728;SDS011;41633;39.720;2.910;2022-12-15T00:48:45;24.77;;;4.22;;
55728;SDS011;41633;39.720;2.910;2022-12-15T00:51:11;26.13;;;4.80;;
55728;SDS011;41633;39.720;2.910;2022-12-15T00:53:38;27.48;;;5.50;;
55728;SDS011;41633;39.720;2.910;2022-12-15T00:56:23;26.52;;;4.75;;
55728;SDS011;41633;39.720;2.910;2022-12-15T00:59:08;26.23;;;4.45;;
55728;SDS011;41633;39.720;2.910;2022-12-15T01:01:53;29.70;;;5.15;;
55728;SDS011;41633;39.720;2.910;2022-12-15T01:04:38;27.83;;;5.13;;
55728;SDS011;41633;39.720;2.910;2022-12-15T01:07:22;27.45;;;4.85;;
55728;SDS011;41633;39.720;2.910;2022-12-15T01:10:07;26.88;;;4.25;;
55728;SDS011;41633;39.720;2.910;2022-12-15T01:12:52;21.25;;;3.90;;
55728;SDS011;41633;39.720;2.910;2022-12-15T01:15:37;29.00;;;3.70;;
55728;SDS011;41633;39.720;2.910;2022-12-15T01:18:22;25.98;;;4.82;;
55728;SDS011;41633;39.720;2.910;2022-12-15T01:21:08;23.63;;;4.05;;
55728;SDS011;41633;39.720;2.910;2022-12-15T01:23:35;23.95;;;3.78;;
55728;SDS011;41633;39.720;2.910;2022-12-15T01:26:02;26.05;;;5.00;;
55728;SDS011;41633;39.720;2.910;2022-12-15T01:28:28;30.42;;;5.35;;
55728;SDS011;41633;39.720;2.910;2022-12-15T01:30:54;27.35;;;4.25;;
55728;SDS011;41633;39.720;2.910;2022-12-15T01:33:24;24.58;;;4.72;;
55728;SDS011;41633;39.720;2.910;2022-12-15T01:35:59;26.73;;;4.10;;
55728;SDS011;41633;39.720;2.910;2022-12-15T01:38:26;23.63;;;3.78;;
55728;SDS011;41633;39.720;2.910;2022-12-15T01:41:03;22.95;;;5.70;;
55728;SDS011;41633;39.720;2.910;2022-12-15T01:43:31;28.30;;;4.93;;
55728;SDS011;41633;39.720;2.910;2022-12-15T01:51:01;23.15;;;5.05;;
55728;SDS011;41633;39.720;2.910;2022-12-15T01:53:31;28.25;;;5.00;;
55728;SDS011;41633;39.720;2.910;2022-12-15T01:55:58;32.33;;;4.72;;
55728;SDS011;41633;39.720;2.910;2022-12-15T01:58:24;31.73;;;4.75;;
55728;SDS011;41633;39.720;2.910;2022-12-15T02:00:51;33.78;;;5.60;;
55728;SDS011;41633;39.720;2.910;2022-12-15T02:05:43;30.05;;;4.85;;
55728;SDS011;41633;39.720;2.910;2022-12-15T02:08:10;28.48;;;5.55;;
55728;SDS011;41633;39.720;2.910;2022-12-15T02:13:18;29.83;;;4.00;;
55728;SDS011;41633;39.720;2.910;2022-12-15T02:15:49;27.33;;;4.63;;
55728;SDS011;41633;39.720;2.910;2022-12-15T02:20:45;32.50;;;4.90;;
55728;SDS011;41633;39.720;2.910;2022-12-15T02:31:07;28.65;;;4.50;;
55728;SDS011;41633;39.720;2.910;2022-12-15T02:34:07;26.48;;;4.63;;
55728;SDS011;41633;39.720;2.910;2022-12-15T02:36:37;23.35;;;3.95;;
55728;SDS011;41633;39.720;2.910;2022-12-15T02:39:04;27.13;;;4.63;;
55728;SDS011;41633;39.720;2.910;2022-12-15T02:41:35;24.52;;;4.03;;
55728;SDS011;41633;39.720;2.910;2022-12-15T02:44:07;24.25;;;3.78;;
55728;SDS011;41633;39.720;2.910;2022-12-15T02:46:58;24.73;;;4.18;;
55728;SDS011;41633;39.720;2.910;2022-12-15T02:54:47;23.02;;;4.25;;
55728;SDS011;41633;39.720;2.910;2022-12-15T02:58:17;28.90;;;4.28;;
55728;SDS011;41633;39.720;2.910;2022-12-15T03:00:11;22.48;;;4.13;;
55728;SDS011;41633;39.720;2.910;2022-12-15T03:02:38;24.52;;;4.25;;
55728;SDS011;41633;39.720;2.910;2022-12-15T03:05:06;26.00;;;4.43;;
55728;SDS011;41633;39.720;2.910;2022-12-15T03:07:32;22.73;;;3.95;;
55728;SDS011;41633;39.720;2.910;2022-12-15T03:09:59;23.92;;;3.85;;
55728;SDS011;41633;39.720;2.910;2022-12-15T03:12:25;24.33;;;3.95;;
55728;SDS011;41633;39.720;2.910;2022-12-15T03:14:52;24.88;;;3.88;;
55728;SDS011;41633;39.720;2.910;2022-12-15T03:19:44;28.35;;;3.67;;
55728;SDS011;41633;39.720;2.910;2022-12-15T03:22:10;25.50;;;3.72;;
55728;SDS011;41633;39.720;2.910;2022-12-15T03:24:36;21.15;;;3.63;;
55728;SDS011;41633;39.720;2.910;2022-12-15T03:27:03;22.10;;;4.03;;
55728;SDS011;41633;39.720;2.910;2022-12-15T03:31:55;27.55;;;4.13;;
55728;SDS011;41633;39.720;2.910;2022-12-15T03:34:21;34.10;;;4.97;;
55728;SDS011;41633;39.720;2.910;2022-12-15T03:36:47;29.98;;;4.93;;
55728;SDS011;41633;39.720;2.910;2022-12-15T03:39:13;32.50;;;4.88;;
55728;SDS011;41633;39.720;2.910;2022-12-15T03:41:39;35.40;;;5.05;;
55728;SDS011;41633;39.720;2.910;2022-12-15T03:44:06;20.92;;;3.65;;
55728;SDS011;41633;39.720;2.910;2022-12-15T03:46:32;30.50;;;5.40;;
55728;SDS011;41633;39.720;2.910;2022-12-15T03:48:58;28.15;;;4.30;;
55728;SDS011;41633;39.720;2.910;2022-12-15T03:51:24;31.77;;;4.97;;
55728;SDS011;41633;39.720;2.910;2022-12-15T03:53:50;28.42;;;4.97;;
55728;SDS011;41633;39.720;2.910;2022-12-15T03:56:17;33.05;;;5.95;;
55728;SDS011;41633;39.720;2.910;2022-12-15T03:58:44;30.10;;;5.53;;
55728;SDS011;41633;39.720;2.910;2022-12-15T04:01:11;40.30;;;5.70;;
55728;SDS011;41633;39.720;2.910;2022-12-15T04:03:38;35.42;;;5.60;;
55728;SDS011;41633;39.720;2.910;2022-12-15T04:06:04;36.35;;;5.32;;
55728;SDS011;41633;39.720;2.910;2022-12-15T04:10:56;25.58;;;4.75;;
55728;SDS011;41633;39.720;2.910;2022-12-15T04:13:22;27.42;;;4.20;;
55728;SDS011;41633;39.720;2.910;2022-12-15T04:15:49;27.20;;;4.38;;
55728;SDS011;41633;39.720;2.910;2022-12-15T04:18:15;23.85;;;4.38;;
55728;SDS011;41633;39.720;2.910;2022-12-15T04:20:41;22.95;;;4.28;;
55728;SDS011;41633;39.720;2.910;2022-12-15T04:23:07;24.83;;;3.85;;
55728;SDS011;41633;39.720;2.910;2022-12-15T04:25:34;23.77;;;3.65;;
55728;SDS011;41633;39.720;2.910;2022-12-15T04:28:19;27.77;;;3.95;;
55728;SDS011;41633;39.720;2.910;2022-12-15T04:31:47;31.67;;;4.18;;
55728;SDS011;41633;39.720;2.910;2022-12-15T04:34:17;26.33;;;3.72;;
55728;SDS011;41633;39.720;2.910;2022-12-15T04:37:04;24.15;;;3.70;;
55728;SDS011;41633;39.720;2.910;2022-12-15T04:39:49;23.40;;;3.67;;
55728;SDS011;41633;39.720;2.910;2022-12-15T04:42:35;28.13;;;4.18;;
55728;SDS011;41633;39.720;2.910;2022-12-15T04:45:21;21.77;;;4.32;;
55728;SDS011;41633;39.720;2.910;2022-12-15T04:48:07;24.95;;;3.80;;
55728;SDS011;41633;39.720;2.910;2022-12-15T04:50:52;28.27;;;3.97;;
55728;SDS011;41633;39.720;2.910;2022-12-15T04:53:37;23.77;;;4.05;;
55728;SDS011;41633;39.720;2.910;2022-12-15T04:56:22;24.30;;;3.85;;
55728;SDS011;41633;39.720;2.910;2022-12-15T04:59:07;22.70;;;4.00;;
55728;SDS011;41633;39.720;2.910;2022-12-15T05:01:51;27.83;;;4.70;;
55728;SDS011;41633;39.720;2.910;2022-12-15T05:04:36;28.50;;;4.60;;
55728;SDS011;41633;39.720;2.910;2022-12-15T05:07:21;25.33;;;4.13;;
55728;SDS011;41633;39.720;2.910;2022-12-15T05:10:07;34.50;;;5.10;;
55728;SDS011;41633;39.720;2.910;2022-12-15T05:12:52;26.83;;;4.15;;
55728;SDS011;41633;39.720;2.910;2022-12-15T05:15:36;34.10;;;5.60;;
55728;SDS011;41633;39.720;2.910;2022-12-15T05:18:21;30.00;;;5.57;;
55728;SDS011;41633;39.720;2.910;2022-12-15T05:21:06;27.50;;;5.03;;
55728;SDS011;41633;39.720;2.910;2022-12-15T05:23:51;30.25;;;5.97;;
55728;SDS011;41633;39.720;2.910;2022-12-15T05:26:35;37.17;;;6.00;;
55728;SDS011;41633;39.720;2.910;2022-12-15T05:29:20;40.22;;;5.82;;
55728;SDS011;41633;39.720;2.910;2022-12-15T05:32:06;31.42;;;5.40;;
55728;SDS011;41633;39.720;2.910;2022-12-15T05:34:33;32.22;;;5.13;;
55728;SDS011;41633;39.720;2.910;2022-12-15T05:37:00;36.38;;;5.78;;
55728;SDS011;41633;39.720;2.910;2022-12-15T05:39:26;32.88;;;5.00;;
55728;SDS011;41633;39.720;2.910;2022-12-15T05:41:53;28.98;;;5.63;;
55728;SDS011;41633;39.720;2.910;2022-12-15T05:44:20;31.45;;;5.53;;
55728;SDS011;41633;39.720;2.910;2022-12-15T05:49:13;32.72;;;5.47;;
55728;SDS011;41633;39.720;2.910;2022-12-15T05:51:40;35.30;;;5.75;;
55728;SDS011;41633;39.720;2.910;2022-12-15T05:54:07;35.45;;;4.75;;
55728;SDS011;41633;39.720;2.910;2022-12-15T05:56:34;31.92;;;4.97;;
55728;SDS011;41633;39.720;2.910;2022-12-15T05:59:00;24.88;;;4.53;;
55728;SDS011;41633;39.720;2.910;2022-12-15T06:01:26;29.40;;;5.28;;
55728;SDS011;41633;39.720;2.910;2022-12-15T06:03:53;28.70;;;4.72;;
55728;SDS011;41633;39.720;2.910;2022-12-15T06:08:45;27.55;;;5.60;;
55728;SDS011;41633;39.720;2.910;2022-12-15T06:11:12;28.63;;;5.03;;
55728;SDS011;41633;39.720;2.910;2022-12-15T06:13:39;24.67;;;4.10;;
55728;SDS011;41633;39.720;2.910;2022-12-15T06:18:33;30.48;;;5.40;;
55728;SDS011;41633;39.720;2.910;2022-12-15T06:21:01;30.15;;;5.00;;
55728;SDS011;41633;39.720;2.910;2022-12-15T06:23:28;26.17;;;4.88;;
55728;SDS011;41633;39.720;2.910;2022-12-15T06:25:54;27.35;;;4.32;;
55728;SDS011;41633;39.720;2.910;2022-12-15T06:28:21;29.23;;;4.72;;
55728;SDS011;41633;39.720;2.910;2022-12-15T06:30:49;24.88;;;4.95;;
55728;SDS011;41633;39.720;2.910;2022-12-15T06:33:16;26.52;;;5.22;;
55728;SDS011;41633;39.720;2.910;2022-12-15T06:35:42;29.83;;;5.38;;
55728;SDS011;41633;39.720;2.910;2022-12-15T06:38:09;34.70;;;5.70;;
55728;SDS011;41633;39.720;2.910;2022-12-15T06:40:35;26.73;;;4.75;;
55728;SDS011;41633;39.720;2.910;2022-12-15T06:43:01;34.33;;;5.40;;
55728;SDS011;41633;39.720;2.910;2022-12-15T06:45:27;30.60;;;5.82;;
55728;SDS011;41633;39.720;2.910;2022-12-15T06:47:53;31.75;;;5.40;;
55728;SDS011;41633;39.720;2.910;2022-12-15T06:52:45;26.30;;;4.85;;
55728;SDS011;41633;39.720;2.910;2022-12-15T06:55:11;29.58;;;5.45;;
55728;SDS011;41633;39.720;2.910;2022-12-15T06:57:38;32.20;;;5.72;;
55728;SDS011;41633;39.720;2.910;2022-12-15T07:02:30;28.85;;;4.90;;
55728;SDS011;41633;39.720;2.910;2022-12-15T07:07:23;33.10;;;5.55;;
55728;SDS011;41633;39.720;2.910;2022-12-15T07:12:15;32.50;;;4.95;;
55728;SDS011;41633;39.720;2.910;2022-12-15T07:14:42;25.40;;;4.70;;
55728;SDS011;41633;39.720;2.910;2022-12-15T07:19:35;26.48;;;4.88;;
55728;SDS011;41633;39.720;2.910;2022-12-15T07:22:01;36.55;;;5.97;;
55728;SDS011;41633;39.720;2.910;2022-12-15T07:26:53;27.25;;;5.05;;
55728;SDS011;41633;39.720;2.910;2022-12-15T07:29:20;26.27;;;4.60;;
55728;SDS011;41633;39.720;2.910;2022-12-15T07:31:46;33.63;;;5.40;;
55728;SDS011;41633;39.720;2.910;2022-12-15T07:34:12;29.38;;;5.15;;
55728;SDS011;41633;39.720;2.910;2022-12-15T07:36:39;29.13;;;4.57;;
55728;SDS011;41633;39.720;2.910;2022-12-15T07:39:05;27.35;;;4.28;;
55728;SDS011;41633;39.720;2.910;2022-12-15T07:41:31;29.23;;;4.80;;
55728;SDS011;41633;39.720;2.910;2022-12-15T07:43:57;34.08;;;5.65;;
55728;SDS011;41633;39.720;2.910;2022-12-15T07:48:50;34.38;;;5.50;;
55728;SDS011;41633;39.720;2.910;2022-12-15T07:51:18;32.28;;;5.18;;
55728;SDS011;41633;39.720;2.910;2022-12-15T07:53:44;30.92;;;4.95;;
55728;SDS011;41633;39.720;2.910;2022-12-15T07:56:11;33.42;;;5.97;;
55728;SDS011;41633;39.720;2.910;2022-12-15T07:58:37;30.45;;;5.38;;
55728;SDS011;41633;39.720;2.910;2022-12-15T08:01:04;33.30;;;5.35;;
55728;SDS011;41633;39.720;2.910;2022-12-15T08:03:31;30.88;;;5.90;;
55728;SDS011;41633;39.720;2.910;2022-12-15T08:08:23;31.77;;;4.28;;
55728;SDS011;41633;39.720;2.910;2022-12-15T08:10:50;27.17;;;4.88;;
55728;SDS011;41633;39.720;2.910;2022-12-15T08:13:16;32.58;;;5.47;;
55728;SDS011;41633;39.720;2.910;2022-12-15T08:15:42;30.20;;;5.63;;
55728;SDS011;41633;39.720;2.910;2022-12-15T08:18:08;35.20;;;6.25;;
55728;SDS011;41633;39.720;2.910;2022-12-15T08:20:34;30.77;;;5.43;;
55728;SDS011;41633;39.720;2.910;2022-12-15T08:23:01;35.45;;;6.22;;
55728;SDS011;41633;39.720;2.910;2022-12-15T08:25:27;34.17;;;6.10;;
55728;SDS011;41633;39.720;2.910;2022-12-15T08:27:54;26.95;;;5.15;;
55728;SDS011;41633;39.720;2.910;2022-12-15T08:30:20;31.27;;;5.70;;
55728;SDS011;41633;39.720;2.910;2022-12-15T08:32:47;31.55;;;6.05;;
55728;SDS011;41633;39.720;2.910;2022-12-15T08:37:39;33.05;;;5.97;;
55728;SDS011;41633;39.720;2.910;2022-12-15T08:40:07;31.80;;;6.38;;
55728;SDS011;41633;39.720;2.910;2022-12-15T08:42:34;36.78;;;6.00;;
55728;SDS011;41633;39.720;2.910;2022-12-15T08:45:00;29.42;;;5.45;;
55728;SDS011;41633;39.720;2.910;2022-12-15T08:47:26;30.90;;;5.25;;
55728;SDS011;41633;39.720;2.910;2022-12-15T08:49:52;32.50;;;5.63;;
55728;SDS011;41633;39.720;2.910;2022-12-15T08:52:20;28.80;;;4.95;;
55728;SDS011;41633;39.720;2.910;2022-12-15T08:54:46;24.58;;;5.05;;
55728;SDS011;41633;39.720;2.910;2022-12-15T08:57:12;22.27;;;4.15;;
55728;SDS011;41633;39.720;2.910;2022-12-15T08:59:38;21.13;;;4.80;;
55728;SDS011;41633;39.720;2.910;2022-12-15T09:02:05;18.48;;;3.05;;
55728;SDS011;41633;39.720;2.910;2022-12-15T09:04:31;16.00;;;3.15;;
55728;SDS011;41633;39.720;2.910;2022-12-15T09:09:23;17.60;;;3.33;;
55728;SDS011;41633;39.720;2.910;2022-12-15T09:11:50;14.25;;;2.45;;
55728;SDS011;41633;39.720;2.910;2022-12-15T09:14:16;14.68;;;2.65;;
55728;SDS011;41633;39.720;2.910;2022-12-15T09:16:43;11.82;;;1.92;;
55728;SDS011;41633;39.720;2.910;2022-12-15T09:19:09;13.32;;;2.20;;
55728;SDS011;41633;39.720;2.910;2022-12-15T09:21:35;12.40;;;2.05;;
55728;SDS011;41633;39.720;2.910;2022-12-15T09:24:02;10.43;;;1.65;;
55728;SDS011;41633;39.720;2.910;2022-12-15T09:26:29;11.02;;;2.13;;
55728;SDS011;41633;39.720;2.910;2022-12-15T09:28:55;14.80;;;2.42;;
55728;SDS011;41633;39.720;2.910;2022-12-15T09:31:23;16.75;;;2.63;;
55728;SDS011;41633;39.720;2.910;2022-12-15T09:33:50;13.18;;;2.28;;
55728;SDS011;41633;39.720;2.910;2022-12-15T09:36:17;15.32;;;2.10;;
55728;SDS011;41633;39.720;2.910;2022-12-15T09:38:43;14.75;;;2.40;;
55728;SDS011;41633;39.720;2.910;2022-12-15T09:43:41;12.15;;;2.13;;
55728;SDS011;41633;39.720;2.910;2022-12-15T09:46:20;14.65;;;2.10;;
55728;SDS011;41633;39.720;2.910;2022-12-15T09:48:48;10.52;;;2.00;;
55728;SDS011;41633;39.720;2.910;2022-12-15T09:51:15;12.77;;;2.33;;
55728;SDS011;41633;39.720;2.910;2022-12-15T09:53:42;11.15;;;2.10;;
55728;SDS011;41633;39.720;2.910;2022-12-15T10:03:27;11.20;;;2.08;;
55728;SDS011;41633;39.720;2.910;2022-12-15T10:11:12;7.18;;;1.33;;
55728;SDS011;41633;39.720;2.910;2022-12-15T10:13:43;9.10;;;1.75;;
55728;SDS011;41633;39.720;2.910;2022-12-15T10:21:38;8.10;;;1.60;;
55728;SDS011;41633;39.720;2.910;2022-12-15T10:24:11;7.78;;;1.25;;
55728;SDS011;41633;39.720;2.910;2022-12-15T10:26:38;8.20;;;1.30;;
55728;SDS011;41633;39.720;2.910;2022-12-15T10:36:50;10.77;;;1.50;;
55728;SDS011;41633;39.720;2.910;2022-12-15T10:39:16;7.90;;;1.17;;
55728;SDS011;41633;39.720;2.910;2022-12-15T10:41:42;8.27;;;1.30;;
55728;SDS011;41633;39.720;2.910;2022-12-15T10:44:24;5.88;;;1.15;;
55728;SDS011;41633;39.720;2.910;2022-12-15T10:46:54;5.82;;;1.10;;
55728;SDS011;41633;39.720;2.910;2022-12-15T10:49:21;7.75;;;1.35;;
55728;SDS011;41633;39.720;2.910;2022-12-15T10:51:57;6.50;;;1.27;;
55728;SDS011;41633;39.720;2.910;2022-12-15T10:54:26;8.32;;;1.83;;
55728;SDS011;41633;39.720;2.910;2022-12-15T10:56:55;8.02;;;1.35;;
55728;SDS011;41633;39.720;2.910;2022-12-15T11:01:48;6.32;;;1.23;;
55728;SDS011;41633;39.720;2.910;2022-12-15T11:04:27;7.68;;;1.23;;
55728;SDS011;41633;39.720;2.910;2022-12-15T11:06:58;6.78;;;1.40;;
55728;SDS011;41633;39.720;2.910;2022-12-15T11:09:34;8.68;;;1.70;;
55728;SDS011;41633;39.720;2.910;2022-12-15T11:12:00;9.82;;;1.80;;
55728;SDS011;41633;39.720;2.910;2022-12-15T11:14:47;6.68;;;1.67;;
55728;SDS011;41633;39.720;2.910;2022-12-15T11:17:15;7.28;;;1.58;;
55728;SDS011;41633;39.720;2.910;2022-12-15T11:20:02;7.93;;;1.77;;
55728;SDS011;41633;39.720;2.910;2022-12-15T11:25:16;7.05;;;1.33;;
55728;SDS011;41633;39.720;2.910;2022-12-15T11:27:46;7.90;;;1.48;;
55728;SDS011;41633;39.720;2.910;2022-12-15T11:30:15;7.28;;;1.20;;
55728;SDS011;41633;39.720;2.910;2022-12-15T11:32:43;4.32;;;0.95;;
55728;SDS011;41633;39.720;2.910;2022-12-15T11:35:19;2.65;;;0.80;;
55728;SDS011;41633;39.720;2.910;2022-12-15T11:37:48;4.45;;;0.88;;
55728;SDS011;41633;39.720;2.910;2022-12-15T11:45:25;6.85;;;1.08;;
55728;SDS011;41633;39.720;2.910;2022-12-15T11:47:58;5.68;;;1.10;;
55728;SDS011;41633;39.720;2.910;2022-12-15T11:55:57;7.63;;;1.10;;
55728;SDS011;41633;39.720;2.910;2022-12-15T12:00:57;9.75;;;1.10;;
55728;SDS011;41633;39.720;2.910;2022-12-15T12:06:19;5.78;;;1.00;;
55728;SDS011;41633;39.720;2.910;2022-12-15T12:11:37;6.82;;;1.13;;
55728;SDS011;41633;39.720;2.910;2022-12-15T12:19:23;5.82;;;1.30;;
55728;SDS011;41633;39.720;2.910;2022-12-15T12:21:50;6.93;;;1.20;;
55728;SDS011;41633;39.720;2.910;2022-12-15T12:24:23;6.40;;;1.42;;
55728;SDS011;41633;39.720;2.910;2022-12-15T12:31:50;7.70;;;1.50;;
55728;SDS011;41633;39.720;2.910;2022-12-15T12:36:52;6.88;;;1.20;;
55728;SDS011;41633;39.720;2.910;2022-12-15T12:39:20;8.23;;;1.33;;
55728;SDS011;41633;39.720;2.910;2022-12-15T12:41:56;6.82;;;1.40;;
55728;SDS011;41633;39.720;2.910;2022-12-15T12:44:29;7.15;;;1.30;;
55728;SDS011;41633;39.720;2.910;2022-12-15T12:46:57;8.77;;;1.95;;
55728;SDS011;41633;39.720;2.910;2022-12-15T12:51:55;11.77;;;2.42;;
55728;SDS011;41633;39.720;2.910;2022-12-15T12:57:47;10.68;;;2.20;;
55728;SDS011;41633;39.720;2.910;2022-12-15T13:00:30;12.38;;;1.80;;
55728;SDS011;41633;39.720;2.910;2022-12-15T13:02:38;7.88;;;1.92;;
55728;SDS011;41633;39.720;2.910;2022-12-15T13:05:28;10.98;;;2.35;;
55728;SDS011;41633;39.720;2.910;2022-12-15T13:10:40;11.00;;;1.92;;
55728;SDS011;41633;39.720;2.910;2022-12-15T13:13:33;10.90;;;2.40;;
55728;SDS011;41633;39.720;2.910;2022-12-15T13:16:21;11.00;;;2.42;;
55728;SDS011;41633;39.720;2.910;2022-12-15T13:19:02;12.95;;;2.67;;
55728;SDS011;41633;39.720;2.910;2022-12-15T13:29:30;12.00;;;2.30;;
55728;SDS011;41633;39.720;2.910;2022-12-15T13:31:58;12.38;;;2.25;;
55728;SDS011;41633;39.720;2.910;2022-12-15T13:34:24;13.57;;;2.10;;
55728;SDS011;41633;39.720;2.910;2022-12-15T13:36:52;15.75;;;2.45;;
55728;SDS011;41633;39.720;2.910;2022-12-15T13:47:05;10.98;;;2.05;;
55728;SDS011;41633;39.720;2.910;2022-12-15T13:49:35;11.32;;;2.30;;
55728;SDS011;41633;39.720;2.910;2022-12-15T13:52:03;11.02;;;2.40;;
55728;SDS011;41633;39.720;2.910;2022-12-15T13:54:37;10.38;;;2.00;;
55728;SDS011;41633;39.720;2.910;2022-12-15T13:57:07;10.57;;;1.60;;
55728;SDS011;41633;39.720;2.910;2022-12-15T13:59:41;10.77;;;2.05;;
55728;SDS011;41633;39.720;2.910;2022-12-15T14:02:25;10.48;;;2.10;;
55728;SDS011;41633;39.720;2.910;2022-12-15T14:07:46;10.95;;;2.05;;
55728;SDS011;41633;39.720;2.910;2022-12-15T14:10:18;16.27;;;3.10;;
55728;SDS011;41633;39.720;2.910;2022-12-15T14:12:45;14.05;;;2.40;;
55728;SDS011;41633;39.720;2.910;2022-12-15T14:15:16;12.32;;;2.30;;
55728;SDS011;41633;39.720;2.910;2022-12-15T14:17:44;15.40;;;2.63;;
55728;SDS011;41633;39.720;2.910;2022-12-15T14:20:16;19.90;;;5.20;;
55728;SDS011;41633;39.720;2.910;2022-12-15T14:22:42;22.35;;;10.27;;
55728;SDS011;41633;39.720;2.910;2022-12-15T14:25:13;21.70;;;5.05;;
55728;SDS011;41633;39.720;2.910;2022-12-15T14:27:41;20.90;;;6.45;;
55728;SDS011;41633;39.720;2.910;2022-12-15T14:32:33;24.30;;;6.07;;
55728;SDS011;41633;39.720;2.910;2022-12-15T14:34:59;16.10;;;3.10;;
55728;SDS011;41633;39.720;2.910;2022-12-15T14:37:26;17.77;;;3.30;;
55728;SDS011;41633;39.720;2.910;2022-12-15T14:39:53;16.50;;;3.33;;
55728;SDS011;41633;39.720;2.910;2022-12-15T14:42:23;21.75;;;3.60;;
55728;SDS011;41633;39.720;2.910;2022-12-15T14:44:50;16.65;;;4.70;;
55728;SDS011;41633;39.720;2.910;2022-12-15T14:47:22;20.48;;;7.03;;
55728;SDS011;41633;39.720;2.910;2022-12-15T14:49:50;24.10;;;5.45;;
55728;SDS011;41633;39.720;2.910;2022-12-15T14:54:51;21.23;;;6.10;;
55728;SDS011;41633;39.720;2.910;2022-12-15T14:59:47;24.60;;;7.63;;
55728;SDS011;41633;39.720;2.910;2022-12-15T15:05:05;23.75;;;8.48;;
55728;SDS011;41633;39.720;2.910;2022-12-15T15:07:32;20.02;;;4.72;;
55728;SDS011;41633;39.720;2.910;2022-12-15T15:09:58;24.67;;;4.35;;
55728;SDS011;41633;39.720;2.910;2022-12-15T15:12:27;22.92;;;3.85;;
55728;SDS011;41633;39.720;2.910;2022-12-15T15:15:05;22.92;;;4.93;;
55728;SDS011;41633;39.720;2.910;2022-12-15T15:17:36;37.70;;;15.48;;
55728;SDS011;41633;39.720;2.910;2022-12-15T15:20:06;25.45;;;7.97;;
55728;SDS011;41633;39.720;2.910;2022-12-15T15:22:42;19.67;;;4.35;;
55728;SDS011;41633;39.720;2.910;2022-12-15T15:30:41;24.10;;;5.55;;
55728;SDS011;41633;39.720;2.910;2022-12-15T15:33:08;20.70;;;5.93;;
55728;SDS011;41633;39.720;2.910;2022-12-15T15:35:34;31.73;;;13.10;;
55728;SDS011;41633;39.720;2.910;2022-12-15T15:38:04;32.40;;;10.77;;
55728;SDS011;41633;39.720;2.910;2022-12-15T15:40:32;37.25;;;12.55;;
55728;SDS011;41633;39.720;2.910;2022-12-15T15:42:58;26.25;;;7.75;;
55728;SDS011;41633;39.720;2.910;2022-12-15T15:45:24;33.00;;;10.57;;
55728;SDS011;41633;39.720;2.910;2022-12-15T15:50:18;29.95;;;8.18;;
55728;SDS011;41633;39.720;2.910;2022-12-15T15:52:46;21.23;;;6.40;;
55728;SDS011;41633;39.720;2.910;2022-12-15T15:55:13;28.98;;;6.18;;
55728;SDS011;41633;39.720;2.910;2022-12-15T15:57:39;26.17;;;5.35;;
55728;SDS011;41633;39.720;2.910;2022-12-15T16:00:12;26.98;;;6.30;;
55728;SDS011;41633;39.720;2.910;2022-12-15T16:02:39;30.13;;;9.65;;
55728;SDS011;41633;39.720;2.910;2022-12-15T16:05:06;31.48;;;9.70;;
55728;SDS011;41633;39.720;2.910;2022-12-15T16:07:32;32.08;;;8.18;;
55728;SDS011;41633;39.720;2.910;2022-12-15T16:12:25;31.65;;;9.88;;
55728;SDS011;41633;39.720;2.910;2022-12-15T16:14:56;24.63;;;7.13;;
55728;SDS011;41633;39.720;2.910;2022-12-15T16:17:22;26.80;;;7.15;;
55728;SDS011;41633;39.720;2.910;2022-12-15T16:19:49;39.13;;;19.50;;
55728;SDS011;41633;39.720;2.910;2022-12-15T16:22:16;89.55;;;60.70;;
55728;SDS011;41633;39.720;2.910;2022-12-15T16:24:42;57.90;;;37.47;;
55728;SDS011;41633;39.720;2.910;2022-12-15T16:29:35;25.73;;;7.75;;
55728;SDS011;41633;39.720;2.910;2022-12-15T16:32:01;47.72;;;28.90;;
55728;SDS011;41633;39.720;2.910;2022-12-15T16:34:27;33.63;;;15.68;;
55728;SDS011;41633;39.720;2.910;2022-12-15T16:36:53;32.67;;;12.43;;
55728;SDS011;41633;39.720;2.910;2022-12-15T16:41:45;30.45;;;10.18;;
55728;SDS011;41633;39.720;2.910;2022-12-15T16:44:11;31.30;;;9.75;;
55728;SDS011;41633;39.720;2.910;2022-12-15T16:49:04;32.80;;;11.02;;
55728;SDS011;41633;39.720;2.910;2022-12-15T16:51:34;32.88;;;12.68;;
55728;SDS011;41633;39.720;2.910;2022-12-15T16:54:02;33.10;;;8.75;;
55728;SDS011;41633;39.720;2.910;2022-12-15T16:56:28;36.17;;;8.93;;
55728;SDS011;41633;39.720;2.910;2022-12-15T16:58:54;32.88;;;7.10;;
55728;SDS011;41633;39.720;2.910;2022-12-15T17:01:21;33.70;;;7.28;;
55728;SDS011;41633;39.720;2.910;2022-12-15T17:03:47;28.10;;;7.03;;
55728;SDS011;41633;39.720;2.910;2022-12-15T17:08:44;27.73;;;7.25;;
55728;SDS011;41633;39.720;2.910;2022-12-15T17:11:16;36.08;;;7.75;;
55728;SDS011;41633;39.720;2.910;2022-12-15T17:13:43;33.00;;;9.15;;
55728;SDS011;41633;39.720;2.910;2022-12-15T17:16:12;35.13;;;7.65;;
55728;SDS011;41633;39.720;2.910;2022-12-15T17:18:38;27.00;;;6.45;;
55728;SDS011;41633;39.720;2.910;2022-12-15T17:23:31;35.38;;;6.72;;
55728;SDS011;41633;39.720;2.910;2022-12-15T17:25:57;31.92;;;7.57;;
55728;SDS011;41633;39.720;2.910;2022-12-15T17:28:30;32.30;;;6.40;;
55728;SDS011;41633;39.720;2.910;2022-12-15T17:30:57;29.25;;;6.68;;
55728;SDS011;41633;39.720;2.910;2022-12-15T17:33:24;31.45;;;6.93;;
55728;SDS011;41633;39.720;2.910;2022-12-15T17:35:52;31.33;;;8.70;;
55728;SDS011;41633;39.720;2.910;2022-12-15T17:38:19;25.58;;;6.45;;
55728;SDS011;41633;39.720;2.910;2022-12-15T17:40:46;33.28;;;6.18;;
55728;SDS011;41633;39.720;2.910;2022-12-15T17:43:13;36.58;;;8.75;;
55728;SDS011;41633;39.720;2.910;2022-12-15T17:45:40;33.70;;;6.55;;
55728;SDS011;41633;39.720;2.910;2022-12-15T17:50:32;29.35;;;7.50;;
55728;SDS011;41633;39.720;2.910;2022-12-15T17:52:59;31.90;;;6.03;;
55728;SDS011;41633;39.720;2.910;2022-12-15T17:55:26;29.85;;;8.00;;
55728;SDS011;41633;39.720;2.910;2022-12-15T17:57:53;29.35;;;5.93;;
55728;SDS011;41633;39.720;2.910;2022-12-15T18:02:46;36.63;;;7.00;;
55728;SDS011;41633;39.720;2.910;2022-12-15T18:05:13;34.65;;;6.95;;
55728;SDS011;41633;39.720;2.910;2022-12-15T18:07:40;35.80;;;7.93;;
55728;SDS011;41633;39.720;2.910;2022-12-15T18:10:13;29.33;;;6.57;;
55728;SDS011;41633;39.720;2.910;2022-12-15T18:12:45;40.15;;;9.25;;